sensor_id;sensor_type;location;lat;lon;timestamp;pressure;altitude;pressure_sealevel;temperature;humidity
929;BME280;451;47.988;7.842;2023-05-10T00:05:34;98033.47;;;14.57;100.00
929;BME280;451;47.988;7.842;2023-05-10T00:14:38;98036.72;;;14.59;100.00
929;BME280;451;47.988;7.842;2023-05-10T00:23:41;98026.78;;;14.15;100.00
929;BME280;451;47.988;7.842;2023-05-10T00:32:45;98024.16;;;14.48;100.00
929;BME280;451;47.988;7.842;2023-05-10T00:41:49;98025.53;;;14.57;100.00
929;BME280;451;47.988;7.842;2023-05-10T00:50:55;98024.34;;;14.46;100.00
929;BME280;451;47.988;7.842;2023-05-10T00:59:59;98031.06;;;14.49;100.00
929;BME280;451;47.988;7.842;2023-05-10T01:09:03;98027.38;;;14.43;100.00
929;BME280;451;47.988;7.842;2023-05-10T01:18:08;97984.09;;;14.11;100.00
929;BME280;451;47.988;7.842;2023-05-10T01:27:29;98031.47;;;14.46;100.00
929;BME280;451;47.988;7.842;2023-05-10T01:36:45;98027.75;;;13.81;100.00
929;BME280;451;47.988;7.842;2023-05-10T01:45:57;98042.44;;;14.03;100.00
929;BME280;451;47.988;7.842;2023-05-10T01:55:06;98042.00;;;13.87;100.00
929;BME280;451;47.988;7.842;2023-05-10T02:04:11;97997.50;;;14.03;100.00
929;BME280;451;47.988;7.842;2023-05-10T02:13:18;98030.03;;;14.17;100.00
929;BME280;451;47.988;7.842;2023-05-10T02:22:22;98046.09;;;14.29;100.00
929;BME280;451;47.988;7.842;2023-05-10T02:31:27;98060.94;;;14.10;100.00
929;BME280;451;47.988;7.842;2023-05-10T02:40:32;97954.16;;;13.45;100.00
929;BME280;451;47.988;7.842;2023-05-10T02:49:37;98077.41;;;14.32;100.00
929;BME280;451;47.988;7.842;2023-05-10T02:58:40;98071.72;;;14.28;100.00
929;BME280;451;47.988;7.842;2023-05-10T03:07:45;98079.22;;;14.25;100.00
929;BME280;451;47.988;7.842;2023-05-10T03:16:55;98066.00;;;13.98;100.00
929;BME280;451;47.988;7.842;2023-05-10T03:26:01;98096.69;;;13.86;100.00
929;BME280;451;47.988;7.842;2023-05-10T03:35:07;97963.97;;;12.97;100.00
929;BME280;451;47.988;7.842;2023-05-10T03:44:12;98080.84;;;14.06;100.00
929;BME280;451;47.988;7.842;2023-05-10T03:53:15;98080.44;;;13.96;100.00
929;BME280;451;47.988;7.842;2023-05-10T04:02:20;98084.53;;;14.11;100.00
929;BME280;451;47.988;7.842;2023-05-10T04:11:23;98085.94;;;14.21;100.00
929;BME280;451;47.988;7.842;2023-05-10T04:20:27;98142.47;;;14.06;100.00
929;BME280;451;47.988;7.842;2023-05-10T04:29:30;98100.56;;;13.90;100.00
929;BME280;451;47.988;7.842;2023-05-10T04:38:35;98085.19;;;14.40;100.00
929;BME280;451;47.988;7.842;2023-05-10T04:47:38;98116.03;;;14.20;100.00
929;BME280;451;47.988;7.842;2023-05-10T04:56:42;98131.34;;;14.50;100.00
929;BME280;451;47.988;7.842;2023-05-10T05:05:45;98086.16;;;14.19;100.00
929;BME280;451;47.988;7.842;2023-05-10T05:14:49;98120.13;;;14.16;100.00
929;BME280;451;47.988;7.842;2023-05-10T05:23:52;98123.84;;;14.54;100.00
929;BME280;451;47.988;7.842;2023-05-10T05:32:56;98112.81;;;14.18;100.00
929;BME280;451;47.988;7.842;2023-05-10T05:41:59;98147.34;;;14.09;100.00
929;BME280;451;47.988;7.842;2023-05-10T05:51:04;98028.91;;;13.46;100.00
929;BME280;451;47.988;7.842;2023-05-10T06:00:08;98165.25;;;14.14;100.00
929;BME280;451;47.988;7.842;2023-05-10T06:09:21;98179.28;;;13.54;100.00
929;BME280;451;47.988;7.842;2023-05-10T06:18:26;98146.06;;;13.38;100.00
929;BME280;451;47.988;7.842;2023-05-10T06:27:30;98196.91;;;13.47;100.00
929;BME280;451;47.988;7.842;2023-05-10T06:36:33;98197.91;;;13.93;100.00
929;BME280;451;47.988;7.842;2023-05-10T06:45:37;98203.72;;;14.17;100.00
929;BME280;451;47.988;7.842;2023-05-10T06:54:40;98196.84;;;13.81;100.00
929;BME280;451;47.988;7.842;2023-05-10T07:03:45;98209.31;;;14.48;100.00
929;BME280;451;47.988;7.842;2023-05-10T07:12:47;98218.88;;;14.82;100.00
929;BME280;451;47.988;7.842;2023-05-10T07:21:52;98221.50;;;15.28;100.00
929;BME280;451;47.988;7.842;2023-05-10T07:30:55;98228.06;;;14.86;100.00
929;BME280;451;47.988;7.842;2023-05-10T07:40:01;98222.53;;;15.01;100.00
929;BME280;451;47.988;7.842;2023-05-10T07:49:04;98214.13;;;15.43;100.00
929;BME280;451;47.988;7.842;2023-05-10T07:58:08;98227.00;;;16.10;100.00
929;BME280;451;47.988;7.842;2023-05-10T08:07:11;98232.34;;;16.04;100.00
929;BME280;451;47.988;7.842;2023-05-10T08:16:16;98226.03;;;16.99;100.00
929;BME280;451;47.988;7.842;2023-05-10T08:25:19;98210.56;;;16.96;100.00
929;BME280;451;47.988;7.842;2023-05-10T08:34:23;98090.91;;;15.85;100.00
929;BME280;451;47.988;7.842;2023-05-10T08:43:28;98208.22;;;16.81;100.00
929;BME280;451;47.988;7.842;2023-05-10T08:52:32;98215.41;;;16.74;100.00
929;BME280;451;47.988;7.842;2023-05-10T09:01:43;98207.69;;;18.13;94.95
929;BME280;451;47.988;7.842;2023-05-10T09:10:49;98206.84;;;18.43;83.49
929;BME280;451;47.988;7.842;2023-05-10T09:19:57;98223.50;;;18.08;80.70
929;BME280;451;47.988;7.842;2023-05-10T09:29:02;98213.69;;;18.39;74.36
929;BME280;451;47.988;7.842;2023-05-10T09:38:05;98271.59;;;19.26;70.79
929;BME280;451;47.988;7.842;2023-05-10T09:47:09;98253.25;;;19.18;69.25
929;BME280;451;47.988;7.842;2023-05-10T09:56:12;98201.84;;;19.93;61.75
929;BME280;451;47.988;7.842;2023-05-10T10:05:17;98249.59;;;20.18;61.26
929;BME280;451;47.988;7.842;2023-05-10T10:14:21;98237.63;;;19.92;60.24
929;BME280;451;47.988;7.842;2023-05-10T10:23:27;98218.59;;;19.77;57.26
929;BME280;451;47.988;7.842;2023-05-10T10:32:42;98263.75;;;19.55;59.09
929;BME280;451;47.988;7.842;2023-05-10T10:41:53;98263.47;;;20.31;53.49
929;BME280;451;47.988;7.842;2023-05-10T10:50:57;98262.56;;;19.74;54.47
929;BME280;451;47.988;7.842;2023-05-10T11:00:26;98256.53;;;19.79;57.93
929;BME280;451;47.988;7.842;2023-05-10T11:09:39;98216.78;;;21.62;51.91
929;BME280;451;47.988;7.842;2023-05-10T11:18:56;98258.91;;;20.15;53.62
929;BME280;451;47.988;7.842;2023-05-10T11:28:02;98239.13;;;19.76;53.96
929;BME280;451;47.988;7.842;2023-05-10T11:37:08;98253.09;;;18.78;56.57
929;BME280;451;47.988;7.842;2023-05-10T11:46:12;98249.78;;;19.06;56.67
929;BME280;451;47.988;7.842;2023-05-10T11:55:17;98197.19;;;19.13;56.98
929;BME280;451;47.988;7.842;2023-05-10T12:04:20;98203.50;;;18.66;57.28
929;BME280;451;47.988;7.842;2023-05-10T12:13:25;98235.91;;;19.27;54.42
929;BME280;451;47.988;7.842;2023-05-10T12:22:28;98229.44;;;18.70;52.56
929;BME280;451;47.988;7.842;2023-05-10T12:31:33;98247.38;;;18.45;57.63
929;BME280;451;47.988;7.842;2023-05-10T12:40:36;98266.16;;;16.91;69.35
929;BME280;451;47.988;7.842;2023-05-10T12:49:40;98267.81;;;16.09;87.16
929;BME280;451;47.988;7.842;2023-05-10T12:58:43;98182.53;;;17.00;83.79
929;BME280;451;47.988;7.842;2023-05-10T13:07:51;98274.06;;;17.47;71.62
929;BME280;451;47.988;7.842;2023-05-10T13:16:54;98280.13;;;17.79;69.70
929;BME280;451;47.988;7.842;2023-05-10T13:25:58;98281.91;;;17.67;72.70
929;BME280;451;47.988;7.842;2023-05-10T13:35:01;98288.84;;;18.04;81.14
929;BME280;451;47.988;7.842;2023-05-10T13:44:07;98262.72;;;18.31;75.04
929;BME280;451;47.988;7.842;2023-05-10T13:53:10;98262.16;;;19.01;64.85
929;BME280;451;47.988;7.842;2023-05-10T14:02:15;98261.28;;;19.30;59.14
929;BME280;451;47.988;7.842;2023-05-10T14:11:18;98228.81;;;19.33;57.07
929;BME280;451;47.988;7.842;2023-05-10T14:20:22;98246.78;;;19.84;57.28
929;BME280;451;47.988;7.842;2023-05-10T14:29:26;98249.00;;;20.56;56.99
929;BME280;451;47.988;7.842;2023-05-10T14:38:30;98237.75;;;19.15;60.88
929;BME280;451;47.988;7.842;2023-05-10T14:47:33;98244.81;;;19.33;58.00
929;BME280;451;47.988;7.842;2023-05-10T14:56:37;98233.38;;;19.67;58.03
929;BME280;451;47.988;7.842;2023-05-10T15:05:40;98228.94;;;20.13;57.74
929;BME280;451;47.988;7.842;2023-05-10T15:14:45;98231.22;;;19.93;57.57
929;BME280;451;47.988;7.842;2023-05-10T15:23:48;98175.75;;;19.08;59.70
929;BME280;451;47.988;7.842;2023-05-10T15:32:52;98227.22;;;19.55;64.80
929;BME280;451;47.988;7.842;2023-05-10T15:41:55;98206.41;;;20.49;55.52
929;BME280;451;47.988;7.842;2023-05-10T15:51:00;98236.44;;;19.88;56.32
929;BME280;451;47.988;7.842;2023-05-10T16:00:03;98249.75;;;20.11;56.01
929;BME280;451;47.988;7.842;2023-05-10T16:09:15;98262.44;;;19.11;57.55
929;BME280;451;47.988;7.842;2023-05-10T16:18:18;98229.69;;;18.21;62.49
929;BME280;451;47.988;7.842;2023-05-10T16:27:22;98251.44;;;17.81;64.39
929;BME280;451;47.988;7.842;2023-05-10T16:36:27;98266.16;;;18.50;65.01
929;BME280;451;47.988;7.842;2023-05-10T16:45:31;98265.47;;;18.25;65.48
929;BME280;451;47.988;7.842;2023-05-10T16:54:34;98213.63;;;17.97;64.30
929;BME280;451;47.988;7.842;2023-05-10T17:03:39;98285.69;;;18.44;60.48
929;BME280;451;47.988;7.842;2023-05-10T17:12:42;98284.00;;;18.31;60.10
929;BME280;451;47.988;7.842;2023-05-10T17:21:47;98286.28;;;18.46;58.41
929;BME280;451;47.988;7.842;2023-05-10T17:30:54;98284.16;;;18.18;60.50
929;BME280;451;47.988;7.842;2023-05-10T17:40:05;98284.81;;;18.32;62.68
929;BME280;451;47.988;7.842;2023-05-10T17:49:12;98301.16;;;17.56;65.20
929;BME280;451;47.988;7.842;2023-05-10T17:58:17;98294.69;;;17.52;61.19
929;BME280;451;47.988;7.842;2023-05-10T18:07:20;98295.56;;;17.46;61.22
929;BME280;451;47.988;7.842;2023-05-10T18:16:25;98306.16;;;16.96;62.06
929;BME280;451;47.988;7.842;2023-05-10T18:25:28;98307.78;;;16.97;63.62
929;BME280;451;47.988;7.842;2023-05-10T18:34:33;98322.97;;;16.45;67.07
929;BME280;451;47.988;7.842;2023-05-10T18:43:36;98328.53;;;16.24;68.72
929;BME280;451;47.988;7.842;2023-05-10T18:52:41;98288.56;;;15.35;68.50
929;BME280;451;47.988;7.842;2023-05-10T19:01:44;98303.03;;;15.52;68.90
929;BME280;451;47.988;7.842;2023-05-10T19:10:49;98261.44;;;14.67;73.06
929;BME280;451;47.988;7.842;2023-05-10T19:19:52;98299.06;;;14.69;75.06
929;BME280;451;47.988;7.842;2023-05-10T19:28:56;98355.91;;;14.80;78.28
929;BME280;451;47.988;7.842;2023-05-10T19:37:59;98363.25;;;14.84;79.37
929;BME280;451;47.988;7.842;2023-05-10T19:47:03;98355.00;;;14.53;82.77
929;BME280;451;47.988;7.842;2023-05-10T19:56:08;98358.72;;;14.72;81.81
929;BME280;451;47.988;7.842;2023-05-10T20:05:13;98373.06;;;14.97;82.47
929;BME280;451;47.988;7.842;2023-05-10T20:14:16;98217.56;;;13.71;82.08
929;BME280;451;47.988;7.842;2023-05-10T20:23:21;98377.06;;;14.73;85.16
929;BME280;451;47.988;7.842;2023-05-10T20:32:24;98359.94;;;14.69;84.55
929;BME280;451;47.988;7.842;2023-05-10T20:41:28;98362.63;;;14.82;84.04
929;BME280;451;47.988;7.842;2023-05-10T20:50:32;98381.84;;;14.50;86.87
929;BME280;451;47.988;7.842;2023-05-10T20:59:36;98377.88;;;14.33;88.15
929;BME280;451;47.988;7.842;2023-05-10T21:08:39;98356.53;;;14.34;87.70
929;BME280;451;47.988;7.842;2023-05-10T21:17:44;98378.44;;;14.22;88.69
929;BME280;451;47.988;7.842;2023-05-10T21:26:47;98331.94;;;13.99;91.96
929;BME280;451;47.988;7.842;2023-05-10T21:35:52;98355.81;;;13.78;94.04
929;BME280;451;47.988;7.842;2023-05-10T21:44:55;98374.28;;;14.12;93.18
929;BME280;451;47.988;7.842;2023-05-10T21:53:59;98360.22;;;13.71;100.00
929;BME280;451;47.988;7.842;2023-05-10T22:03:02;98358.34;;;13.65;100.00
929;BME280;451;47.988;7.842;2023-05-10T22:12:06;98378.38;;;13.31;100.00
929;BME280;451;47.988;7.842;2023-05-10T22:21:10;98387.44;;;13.22;100.00
929;BME280;451;47.988;7.842;2023-05-10T22:30:14;98363.94;;;13.27;100.00
929;BME280;451;47.988;7.842;2023-05-10T22:39:17;98383.38;;;13.69;100.00
929;BME280;451;47.988;7.842;2023-05-10T22:48:22;98378.59;;;13.58;100.00
929;BME280;451;47.988;7.842;2023-05-10T22:57:25;98345.72;;;13.60;100.00
929;BME280;451;47.988;7.842;2023-05-10T23:06:29;98377.72;;;13.72;100.00
929;BME280;451;47.988;7.842;2023-05-10T23:15:33;98363.00;;;13.63;100.00
929;BME280;451;47.988;7.842;2023-05-10T23:24:38;98372.16;;;13.39;100.00
929;BME280;451;47.988;7.842;2023-05-10T23:33:41;98352.25;;;13.37;100.00
929;BME280;451;47.988;7.842;2023-05-10T23:42:45;98362.44;;;13.67;100.00
929;BME280;451;47.988;7.842;2023-05-10T23:51:48;98353.97;;;13.51;100.00
